VTSH

Songkhla Airport

Thailand
TAF VTSH 171100Z 1712/1812 24006KT 9999 FEW020 SCT100
Issued Valid From Valid To
Aug-17 @ 11:00 UTC
(4 hours ago)
Aug-17 @ 12:00 UTC
(3 hours ago)
Aug-18 @ 12:00 UTC
(in 21 hours)
Aug-17 @ 12:00 to Aug-18 @ 12:00
TAF VTSH 171100Z 1712/1812 24006KT 9999 FEW020 SCT100
Wind Visibility Clouds
240° at 6 knots 10,000+ meters
  • Few at 2,000' AGL
  • Scattered at 10,000' AGL
TAF VTSH 171100Z 1712/1812 24006KT 9999 FEW020 SCT100
Issued Aug-17 @ 11:00 UTC
(4 hours ago)
Valid From Aug-17 @ 12:00 UTC
(3 hours ago)
Valid To Aug-18 @ 12:00 UTC
(in 21 hours)
Aug-17 @ 12:00 - Aug-18 @ 12:00
Wind Visibility
240° at 6 knots 10,000+ meters
Clouds
  • Few at 2,000' AGL
  • Scattered at 10,000' AGL